sensor_id;sensor_type;location;lat;lon;timestamp;pressure;altitude;pressure_sealevel;temperature;humidity
6198;BME280;3132;42.622;23.328;2022-08-19T00:01:17;92654.78;;;21.61;61.97
6198;BME280;3132;42.622;23.328;2022-08-19T00:03:42;92633.34;;;21.54;61.22
6198;BME280;3132;42.622;23.328;2022-08-19T00:06:07;92652.91;;;21.62;60.90
6198;BME280;3132;42.622;23.328;2022-08-19T00:08:35;92655.69;;;21.69;60.56
6198;BME280;3132;42.622;23.328;2022-08-19T00:11:00;92652.94;;;21.65;60.13
6198;BME280;3132;42.622;23.328;2022-08-19T00:13:26;92658.72;;;21.67;60.58
6198;BME280;3132;42.622;23.328;2022-08-19T00:15:54;92648.16;;;21.71;59.77
6198;BME280;3132;42.622;23.328;2022-08-19T00:18:20;92657.31;;;21.73;60.04
6198;BME280;3132;42.622;23.328;2022-08-19T00:20:45;92662.75;;;21.77;59.57
6198;BME280;3132;42.622;23.328;2022-08-19T00:23:10;92647.16;;;21.60;59.65
6198;BME280;3132;42.622;23.328;2022-08-19T00:25:36;92673.19;;;21.70;59.69
6198;BME280;3132;42.622;23.328;2022-08-19T00:28:02;92674.66;;;21.83;58.92
6198;BME280;3132;42.622;23.328;2022-08-19T00:30:28;92673.72;;;21.75;60.16
6198;BME280;3132;42.622;23.328;2022-08-19T00:32:53;92651.78;;;21.63;60.51
6198;BME280;3132;42.622;23.328;2022-08-19T00:35:20;92670.59;;;21.73;61.13
6198;BME280;3132;42.622;23.328;2022-08-19T00:37:47;92669.69;;;21.66;61.84
6198;BME280;3132;42.622;23.328;2022-08-19T00:40:12;92624.97;;;21.37;62.33
6198;BME280;3132;42.622;23.328;2022-08-19T00:42:38;92666.44;;;21.57;62.79
6198;BME280;3132;42.622;23.328;2022-08-19T00:45:13;92668.91;;;21.50;62.56
6198;BME280;3132;42.622;23.328;2022-08-19T00:47:40;92653.41;;;21.36;63.17
6198;BME280;3132;42.622;23.328;2022-08-19T00:50:08;92646.72;;;21.27;63.40
6198;BME280;3132;42.622;23.328;2022-08-19T00:52:35;92653.84;;;21.23;63.58
6198;BME280;3132;42.622;23.328;2022-08-19T00:55:04;92647.16;;;21.13;63.82
6198;BME280;3132;42.622;23.328;2022-08-19T00:57:35;92656.75;;;21.18;64.56
6198;BME280;3132;42.622;23.328;2022-08-19T01:00:08;92655.97;;;21.17;64.34
6198;BME280;3132;42.622;23.328;2022-08-19T01:02:36;92648.34;;;21.16;64.08
6198;BME280;3132;42.622;23.328;2022-08-19T01:05:05;92656.75;;;21.18;64.08
6198;BME280;3132;42.622;23.328;2022-08-19T01:07:33;92660.78;;;21.12;64.44
6198;BME280;3132;42.622;23.328;2022-08-19T01:10:00;92641.72;;;20.94;64.72
6198;BME280;3132;42.622;23.328;2022-08-19T01:12:25;92643.06;;;20.88;66.02
6198;BME280;3132;42.622;23.328;2022-08-19T01:14:51;92651.44;;;21.02;65.20
6198;BME280;3132;42.622;23.328;2022-08-19T01:17:17;92648.25;;;20.97;65.13
6198;BME280;3132;42.622;23.328;2022-08-19T01:19:45;92645.69;;;21.00;65.02
6198;BME280;3132;42.622;23.328;2022-08-19T01:24:37;92642.28;;;20.88;65.86
6198;BME280;3132;42.622;23.328;2022-08-19T01:27:06;92640.31;;;20.85;65.78
6198;BME280;3132;42.622;23.328;2022-08-19T01:29:33;92646.31;;;20.82;65.78
6198;BME280;3132;42.622;23.328;2022-08-19T01:32:00;92650.50;;;20.83;65.37
6198;BME280;3132;42.622;23.328;2022-08-19T01:34:26;92651.19;;;20.80;65.20
6198;BME280;3132;42.622;23.328;2022-08-19T01:36:52;92638.44;;;20.69;65.69
6198;BME280;3132;42.622;23.328;2022-08-19T01:39:21;92652.88;;;20.72;66.15
6198;BME280;3132;42.622;23.328;2022-08-19T01:41:47;92648.50;;;20.64;66.01
6198;BME280;3132;42.622;23.328;2022-08-19T01:44:13;92626.72;;;20.43;65.80
6198;BME280;3132;42.622;23.328;2022-08-19T01:46:39;92631.69;;;20.44;65.92
6198;BME280;3132;42.622;23.328;2022-08-19T01:49:05;92646.25;;;20.50;65.88
6198;BME280;3132;42.622;23.328;2022-08-19T01:51:30;92653.34;;;20.46;66.00
6198;BME280;3132;42.622;23.328;2022-08-19T01:53:56;92633.56;;;20.44;66.51
6198;BME280;3132;42.622;23.328;2022-08-19T01:56:22;92650.69;;;20.46;66.88
6198;BME280;3132;42.622;23.328;2022-08-19T01:59:01;92647.59;;;20.44;66.93
6198;BME280;3132;42.622;23.328;2022-08-19T02:01:28;92652.03;;;20.40;67.08
6198;BME280;3132;42.622;23.328;2022-08-19T02:03:58;92651.59;;;20.38;67.54
6198;BME280;3132;42.622;23.328;2022-08-19T02:06:23;92647.81;;;20.39;67.53
6198;BME280;3132;42.622;23.328;2022-08-19T02:08:49;92648.06;;;20.34;67.24
6198;BME280;3132;42.622;23.328;2022-08-19T02:11:22;92648.31;;;20.29;67.94
6198;BME280;3132;42.622;23.328;2022-08-19T02:13:49;92642.25;;;20.29;67.06
6198;BME280;3132;42.622;23.328;2022-08-19T02:16:17;92634.63;;;20.27;66.42
6198;BME280;3132;42.622;23.328;2022-08-19T02:18:42;92636.38;;;20.23;66.83
6198;BME280;3132;42.622;23.328;2022-08-19T02:21:07;92634.84;;;20.22;66.25
6198;BME280;3132;42.622;23.328;2022-08-19T02:23:33;92634.63;;;20.27;65.81
6198;BME280;3132;42.622;23.328;2022-08-19T02:25:58;92641.66;;;20.35;66.41
6198;BME280;3132;42.622;23.328;2022-08-19T02:28:24;92651.06;;;20.33;67.05
6198;BME280;3132;42.622;23.328;2022-08-19T02:30:49;92632.81;;;20.31;66.86
6198;BME280;3132;42.622;23.328;2022-08-19T02:33:14;92636.59;;;20.30;67.12
6198;BME280;3132;42.622;23.328;2022-08-19T02:35:42;92648.72;;;20.43;66.75
6198;BME280;3132;42.622;23.328;2022-08-19T02:38:08;92647.81;;;20.39;67.46
6198;BME280;3132;42.622;23.328;2022-08-19T02:40:58;92648.22;;;20.26;68.11
6198;BME280;3132;42.622;23.328;2022-08-19T02:43:24;92658.72;;;20.22;68.41
6198;BME280;3132;42.622;23.328;2022-08-19T02:45:51;92648.56;;;20.12;68.30
6198;BME280;3132;42.622;23.328;2022-08-19T02:48:21;92652.19;;;20.08;68.98
6198;BME280;3132;42.622;23.328;2022-08-19T02:50:49;92650.66;;;20.07;69.10
6198;BME280;3132;42.622;23.328;2022-08-19T02:53:25;92647.50;;;19.89;70.16
6198;BME280;3132;42.622;23.328;2022-08-19T02:55:51;92661.38;;;20.10;69.84
6198;BME280;3132;42.622;23.328;2022-08-19T02:58:18;92652.91;;;19.93;70.02
6198;BME280;3132;42.622;23.328;2022-08-19T03:00:49;92667.78;;;19.97;70.84
6198;BME280;3132;42.622;23.328;2022-08-19T03:03:16;92665.28;;;19.89;70.51
6198;BME280;3132;42.622;23.328;2022-08-19T03:05:42;92666.03;;;19.89;70.55
6198;BME280;3132;42.622;23.328;2022-08-19T03:08:09;92664.72;;;19.95;70.34
6198;BME280;3132;42.622;23.328;2022-08-19T03:10:47;92663.38;;;19.89;70.54
6198;BME280;3132;42.622;23.328;2022-08-19T03:13:16;92663.97;;;19.71;71.12
6198;BME280;3132;42.622;23.328;2022-08-19T03:15:43;92660.97;;;19.72;71.01
6198;BME280;3132;42.622;23.328;2022-08-19T03:18:10;92649.63;;;19.72;69.93
6198;BME280;3132;42.622;23.328;2022-08-19T03:20:47;92647.06;;;19.75;70.55
6198;BME280;3132;42.622;23.328;2022-08-19T03:23:13;92621.41;;;19.52;71.28
6198;BME280;3132;42.622;23.328;2022-08-19T03:25:41;92648.06;;;19.71;70.92
6198;BME280;3132;42.622;23.328;2022-08-19T03:28:12;92648.41;;;19.81;70.23
6198;BME280;3132;42.622;23.328;2022-08-19T03:30:39;92634.06;;;19.58;70.58
6198;BME280;3132;42.622;23.328;2022-08-19T03:33:08;92646.78;;;19.53;71.78
6198;BME280;3132;42.622;23.328;2022-08-19T03:35:34;92648.41;;;19.57;71.00
6198;BME280;3132;42.622;23.328;2022-08-19T03:38:03;92649.28;;;19.61;71.23
6198;BME280;3132;42.622;23.328;2022-08-19T03:40:29;92602.72;;;19.24;71.28
6198;BME280;3132;42.622;23.328;2022-08-19T03:42:56;92638.47;;;19.30;72.54
6198;BME280;3132;42.622;23.328;2022-08-19T03:45:22;92650.19;;;19.53;71.94
6198;BME280;3132;42.622;23.328;2022-08-19T03:47:47;92645.56;;;19.62;71.28
6198;BME280;3132;42.622;23.328;2022-08-19T03:50:12;92661.31;;;19.71;71.07
6198;BME280;3132;42.622;23.328;2022-08-19T03:52:38;92661.75;;;19.73;70.48
6198;BME280;3132;42.622;23.328;2022-08-19T03:55:04;92678.97;;;19.79;70.58
6198;BME280;3132;42.622;23.328;2022-08-19T03:57:30;92674.78;;;19.78;71.33
6198;BME280;3132;42.622;23.328;2022-08-19T03:59:55;92669.34;;;19.86;70.89
6198;BME280;3132;42.622;23.328;2022-08-19T04:02:21;92676.41;;;19.94;70.72
6198;BME280;3132;42.622;23.328;2022-08-19T04:04:46;92692.22;;;20.03;70.65
6198;BME280;3132;42.622;23.328;2022-08-19T04:07:13;92671.75;;;20.03;70.17
6198;BME280;3132;42.622;23.328;2022-08-19T04:09:41;92690.34;;;20.15;71.31
6198;BME280;3132;42.622;23.328;2022-08-19T04:12:07;92680.81;;;20.26;69.94
6198;BME280;3132;42.622;23.328;2022-08-19T04:14:33;92685.44;;;20.29;70.51
6198;BME280;3132;42.622;23.328;2022-08-19T04:17:00;92678.47;;;20.37;70.39
6198;BME280;3132;42.622;23.328;2022-08-19T04:19:29;92691.16;;;20.43;70.16
6198;BME280;3132;42.622;23.328;2022-08-19T04:21:55;92698.50;;;20.62;69.34
6198;BME280;3132;42.622;23.328;2022-08-19T04:24:21;92682.94;;;20.48;70.02
6198;BME280;3132;42.622;23.328;2022-08-19T04:26:48;92696.63;;;20.50;71.80
6198;BME280;3132;42.622;23.328;2022-08-19T04:29:20;92705.78;;;20.65;70.46
6198;BME280;3132;42.622;23.328;2022-08-19T04:31:48;92701.53;;;20.76;70.29
6198;BME280;3132;42.622;23.328;2022-08-19T04:34:17;92700.00;;;20.91;69.93
6198;BME280;3132;42.622;23.328;2022-08-19T04:36:44;92703.75;;;21.02;69.70
6198;BME280;3132;42.622;23.328;2022-08-19T04:39:15;92696.59;;;21.18;68.68
6198;BME280;3132;42.622;23.328;2022-08-19T04:41:42;92700.09;;;21.53;67.15
6198;BME280;3132;42.622;23.328;2022-08-19T04:44:26;92683.66;;;21.32;68.62
6198;BME280;3132;42.622;23.328;2022-08-19T04:46:56;92684.16;;;21.37;69.15
6198;BME280;3132;42.622;23.328;2022-08-19T04:49:22;92696.41;;;21.57;67.42
6198;BME280;3132;42.622;23.328;2022-08-19T04:51:50;92694.97;;;21.60;67.36
6198;BME280;3132;42.622;23.328;2022-08-19T04:54:17;92706.19;;;22.00;62.13
6198;BME280;3132;42.622;23.328;2022-08-19T04:56:42;92703.97;;;22.02;63.65
6198;BME280;3132;42.622;23.328;2022-08-19T04:59:09;92700.63;;;22.05;64.53
6198;BME280;3132;42.622;23.328;2022-08-19T05:01:35;92702.88;;;22.22;63.16
6198;BME280;3132;42.622;23.328;2022-08-19T05:04:04;92716.50;;;22.36;62.85
6198;BME280;3132;42.622;23.328;2022-08-19T05:06:31;92712.09;;;22.44;61.14
6198;BME280;3132;42.622;23.328;2022-08-19T05:08:58;92710.81;;;22.53;59.32
6198;BME280;3132;42.622;23.328;2022-08-19T05:11:34;92721.56;;;22.60;60.78
6198;BME280;3132;42.622;23.328;2022-08-19T05:14:01;92711.09;;;22.67;60.57
6198;BME280;3132;42.622;23.328;2022-08-19T05:16:27;92697.63;;;22.79;58.64
6198;BME280;3132;42.622;23.328;2022-08-19T05:18:54;92723.75;;;22.93;59.27
6198;BME280;3132;42.622;23.328;2022-08-19T05:21:39;92714.31;;;22.95;59.01
6198;BME280;3132;42.622;23.328;2022-08-19T05:24:23;92716.69;;;23.00;60.30
6198;BME280;3132;42.622;23.328;2022-08-19T05:26:51;92714.28;;;23.14;59.75
6198;BME280;3132;42.622;23.328;2022-08-19T05:29:20;92713.44;;;23.29;59.09
6198;BME280;3132;42.622;23.328;2022-08-19T05:31:47;92713.63;;;23.40;58.77
6198;BME280;3132;42.622;23.328;2022-08-19T05:34:14;92714.28;;;23.56;58.16
6198;BME280;3132;42.622;23.328;2022-08-19T05:36:42;92707.38;;;23.51;57.18
6198;BME280;3132;42.622;23.328;2022-08-19T05:39:10;92713.22;;;23.60;57.62
6198;BME280;3132;42.622;23.328;2022-08-19T05:41:45;92706.00;;;23.61;57.72
6198;BME280;3132;42.622;23.328;2022-08-19T05:44:11;92720.38;;;24.02;57.38
6198;BME280;3132;42.622;23.328;2022-08-19T05:46:38;92724.84;;;23.71;58.25
6198;BME280;3132;42.622;23.328;2022-08-19T05:49:05;92726.94;;;23.85;58.17
6198;BME280;3132;42.622;23.328;2022-08-19T05:51:32;92721.63;;;24.34;54.86
6198;BME280;3132;42.622;23.328;2022-08-19T05:53:59;92716.47;;;24.48;54.66
6198;BME280;3132;42.622;23.328;2022-08-19T05:56:24;92725.22;;;25.37;51.31
6198;BME280;3132;42.622;23.328;2022-08-19T05:58:50;92728.19;;;25.69;50.86
6198;BME280;3132;42.622;23.328;2022-08-19T06:01:17;92726.97;;;25.99;48.96
6198;BME280;3132;42.622;23.328;2022-08-19T06:03:44;92727.75;;;25.60;50.32
6198;BME280;3132;42.622;23.328;2022-08-19T06:06:11;92734.16;;;27.11;47.10
6198;BME280;3132;42.622;23.328;2022-08-19T06:08:38;92747.69;;;29.94;40.24
6198;BME280;3132;42.622;23.328;2022-08-19T06:11:24;92756.34;;;31.44;37.35
6198;BME280;3132;42.622;23.328;2022-08-19T06:13:52;92756.91;;;33.08;35.04
6198;BME280;3132;42.622;23.328;2022-08-19T06:16:20;92756.03;;;34.60;32.17
6198;BME280;3132;42.622;23.328;2022-08-19T06:18:51;92759.97;;;34.56;31.25
6198;BME280;3132;42.622;23.328;2022-08-19T06:21:20;92762.56;;;31.68;36.36
6198;BME280;3132;42.622;23.328;2022-08-19T06:23:47;92747.81;;;28.41;43.22
6198;BME280;3132;42.622;23.328;2022-08-19T06:26:13;92744.38;;;28.05;44.89
6198;BME280;3132;42.622;23.328;2022-08-19T06:28:39;92741.25;;;27.78;45.63
6198;BME280;3132;42.622;23.328;2022-08-19T06:31:09;92740.03;;;27.37;46.11
6198;BME280;3132;42.622;23.328;2022-08-19T06:33:35;92742.91;;;26.94;48.39
6198;BME280;3132;42.622;23.328;2022-08-19T06:36:00;92742.84;;;26.25;50.06
6198;BME280;3132;42.622;23.328;2022-08-19T06:38:26;92734.56;;;26.48;49.43
6198;BME280;3132;42.622;23.328;2022-08-19T06:41:00;92737.75;;;26.64;49.14
6198;BME280;3132;42.622;23.328;2022-08-19T06:43:25;92742.56;;;26.41;50.14
6198;BME280;3132;42.622;23.328;2022-08-19T06:45:50;92744.31;;;26.16;50.97
6198;BME280;3132;42.622;23.328;2022-08-19T06:48:16;92748.94;;;26.22;51.36
6198;BME280;3132;42.622;23.328;2022-08-19T06:50:42;92743.59;;;26.22;49.98
6198;BME280;3132;42.622;23.328;2022-08-19T06:53:07;92741.25;;;26.17;50.11
6198;BME280;3132;42.622;23.328;2022-08-19T06:55:33;92750.56;;;26.37;49.40
6198;BME280;3132;42.622;23.328;2022-08-19T06:58:01;92753.31;;;26.44;49.03
6198;BME280;3132;42.622;23.328;2022-08-19T07:00:28;92743.34;;;25.98;49.39
6198;BME280;3132;42.622;23.328;2022-08-19T07:02:53;92746.97;;;25.72;50.37
6198;BME280;3132;42.622;23.328;2022-08-19T07:05:19;92753.38;;;26.04;50.84
6198;BME280;3132;42.622;23.328;2022-08-19T07:07:44;92762.78;;;26.31;50.08
6198;BME280;3132;42.622;23.328;2022-08-19T07:10:09;92758.94;;;26.32;49.77
6198;BME280;3132;42.622;23.328;2022-08-19T07:12:35;92755.84;;;26.23;48.97
6198;BME280;3132;42.622;23.328;2022-08-19T07:15:03;92757.28;;;26.14;49.93
6198;BME280;3132;42.622;23.328;2022-08-19T07:17:28;92749.34;;;26.79;47.34
6198;BME280;3132;42.622;23.328;2022-08-19T07:19:54;92763.22;;;26.40;48.82
6198;BME280;3132;42.622;23.328;2022-08-19T07:22:21;92763.78;;;26.63;48.69
6198;BME280;3132;42.622;23.328;2022-08-19T07:24:47;92744.31;;;26.16;50.56
6198;BME280;3132;42.622;23.328;2022-08-19T07:27:13;92760.09;;;26.31;50.76
6198;BME280;3132;42.622;23.328;2022-08-19T07:29:39;92746.72;;;26.31;49.28
6198;BME280;3132;42.622;23.328;2022-08-19T07:32:05;92766.66;;;26.99;47.05
6198;BME280;3132;42.622;23.328;2022-08-19T07:34:32;92753.47;;;26.65;49.04
6198;BME280;3132;42.622;23.328;2022-08-19T07:37:01;92774.09;;;26.61;48.85
6198;BME280;3132;42.622;23.328;2022-08-19T07:39:29;92763.72;;;26.56;49.74
6198;BME280;3132;42.622;23.328;2022-08-19T07:41:56;92762.25;;;27.38;47.30
6198;BME280;3132;42.622;23.328;2022-08-19T07:44:22;92764.59;;;27.50;45.90
6198;BME280;3132;42.622;23.328;2022-08-19T07:46:50;92764.91;;;27.31;46.67
6198;BME280;3132;42.622;23.328;2022-08-19T07:49:16;92754.06;;;27.06;48.85
6198;BME280;3132;42.622;23.328;2022-08-19T07:51:50;92756.47;;;27.29;48.02
6198;BME280;3132;42.622;23.328;2022-08-19T07:54:16;92763.84;;;27.74;46.38
6198;BME280;3132;42.622;23.328;2022-08-19T07:56:42;92766.91;;;27.72;45.68
6198;BME280;3132;42.622;23.328;2022-08-19T07:59:07;92765.00;;;27.62;45.96
6198;BME280;3132;42.622;23.328;2022-08-19T08:01:34;92770.38;;;27.73;46.54
6198;BME280;3132;42.622;23.328;2022-08-19T08:04:00;92770.72;;;27.54;46.40
6198;BME280;3132;42.622;23.328;2022-08-19T08:06:44;92768.13;;;27.96;44.75
6198;BME280;3132;42.622;23.328;2022-08-19T08:09:32;92765.09;;;27.90;43.85
6198;BME280;3132;42.622;23.328;2022-08-19T08:17:09;92750.53;;;28.23;43.09
6198;BME280;3132;42.622;23.328;2022-08-19T08:19:36;92743.63;;;28.15;43.08
6198;BME280;3132;42.622;23.328;2022-08-19T08:22:02;92753.59;;;28.21;43.90
6198;BME280;3132;42.622;23.328;2022-08-19T08:24:30;92748.22;;;28.18;43.61
6198;BME280;3132;42.622;23.328;2022-08-19T08:26:57;92759.34;;;28.52;41.37
6198;BME280;3132;42.622;23.328;2022-08-19T08:29:25;92738.25;;;28.01;40.46
6198;BME280;3132;42.622;23.328;2022-08-19T08:31:51;92752.81;;;28.63;41.60
6198;BME280;3132;42.622;23.328;2022-08-19T08:34:17;92757.38;;;28.77;39.55
6198;BME280;3132;42.622;23.328;2022-08-19T08:36:45;92759.69;;;28.71;40.37
6198;BME280;3132;42.622;23.328;2022-08-19T08:39:19;92759.25;;;28.94;40.13
6198;BME280;3132;42.622;23.328;2022-08-19T08:41:59;92745.06;;;28.86;39.66
6198;BME280;3132;42.622;23.328;2022-08-19T08:44:45;92746.66;;;28.73;39.88
6198;BME280;3132;42.622;23.328;2022-08-19T08:47:15;92757.31;;;29.05;39.47
6198;BME280;3132;42.622;23.328;2022-08-19T08:50:16;92746.13;;;29.27;39.23
6198;BME280;3132;42.622;23.328;2022-08-19T08:52:50;92752.69;;;29.05;38.42
6198;BME280;3132;42.622;23.328;2022-08-19T08:55:20;92743.00;;;29.36;36.75
6198;BME280;3132;42.622;23.328;2022-08-19T08:57:50;92750.25;;;29.46;37.73
6198;BME280;3132;42.622;23.328;2022-08-19T09:00:23;92744.03;;;29.66;37.05
6198;BME280;3132;42.622;23.328;2022-08-19T09:02:50;92738.59;;;29.70;35.97
6198;BME280;3132;42.622;23.328;2022-08-19T09:05:15;92738.22;;;29.71;35.81
6198;BME280;3132;42.622;23.328;2022-08-19T09:08:00;92738.94;;;29.79;35.14
6198;BME280;3132;42.622;23.328;2022-08-19T09:13:20;92743.09;;;29.91;33.47
6198;BME280;3132;42.622;23.328;2022-08-19T09:15:54;92736.28;;;29.72;33.54
6198;BME280;3132;42.622;23.328;2022-08-19T09:18:21;92737.88;;;29.66;34.92
6198;BME280;3132;42.622;23.328;2022-08-19T09:20:46;92733.97;;;29.74;36.21
6198;BME280;3132;42.622;23.328;2022-08-19T09:23:15;92730.63;;;29.52;34.95
6198;BME280;3132;42.622;23.328;2022-08-19T09:25:40;92731.88;;;29.30;35.11
6198;BME280;3132;42.622;23.328;2022-08-19T09:28:06;92727.38;;;28.99;36.12
6198;BME280;3132;42.622;23.328;2022-08-19T09:30:36;92719.41;;;29.64;34.40
6198;BME280;3132;42.622;23.328;2022-08-19T09:33:04;92719.84;;;30.14;34.01
6198;BME280;3132;42.622;23.328;2022-08-19T09:35:30;92725.53;;;30.20;32.84
6198;BME280;3132;42.622;23.328;2022-08-19T09:37:57;92712.84;;;30.27;32.69
6198;BME280;3132;42.622;23.328;2022-08-19T09:40:23;92721.44;;;30.05;33.61
6198;BME280;3132;42.622;23.328;2022-08-19T09:42:49;92719.56;;;29.29;33.80
6198;BME280;3132;42.622;23.328;2022-08-19T09:45:19;92704.34;;;29.78;33.19
6198;BME280;3132;42.622;23.328;2022-08-19T09:47:46;92713.66;;;30.14;33.59
6198;BME280;3132;42.622;23.328;2022-08-19T09:50:13;92716.66;;;30.30;31.56
6198;BME280;3132;42.622;23.328;2022-08-19T09:52:39;92720.16;;;30.23;32.31
6198;BME280;3132;42.622;23.328;2022-08-19T09:55:09;92719.44;;;30.16;30.02
6198;BME280;3132;42.622;23.328;2022-08-19T09:57:35;92718.53;;;29.82;31.88
6198;BME280;3132;42.622;23.328;2022-08-19T10:00:03;92710.41;;;29.89;31.58
6198;BME280;3132;42.622;23.328;2022-08-19T10:02:28;92702.88;;;30.21;31.95
6198;BME280;3132;42.622;23.328;2022-08-19T10:04:54;92713.28;;;30.59;31.16
6198;BME280;3132;42.622;23.328;2022-08-19T10:07:38;92705.94;;;30.23;30.60
6198;BME280;3132;42.622;23.328;2022-08-19T10:10:04;92676.03;;;30.07;29.90
6198;BME280;3132;42.622;23.328;2022-08-19T10:12:31;92692.91;;;30.14;29.61
6198;BME280;3132;42.622;23.328;2022-08-19T10:14:59;92695.69;;;30.04;30.14
6198;BME280;3132;42.622;23.328;2022-08-19T10:17:25;92699.22;;;30.41;30.51
6198;BME280;3132;42.622;23.328;2022-08-19T10:19:50;92687.41;;;30.28;30.61
6198;BME280;3132;42.622;23.328;2022-08-19T10:22:17;92694.53;;;30.01;30.55
6198;BME280;3132;42.622;23.328;2022-08-19T10:24:43;92679.84;;;30.09;30.50
6198;BME280;3132;42.622;23.328;2022-08-19T10:27:08;92695.75;;;30.44;30.49
6198;BME280;3132;42.622;23.328;2022-08-19T10:29:35;92658.72;;;30.04;30.88
6198;BME280;3132;42.622;23.328;2022-08-19T10:32:01;92690.50;;;30.67;30.40
6198;BME280;3132;42.622;23.328;2022-08-19T10:34:28;92694.16;;;30.47;29.43
6198;BME280;3132;42.622;23.328;2022-08-19T10:36:53;92687.31;;;30.39;29.58
6198;BME280;3132;42.622;23.328;2022-08-19T10:39:19;92683.94;;;30.65;30.65
6198;BME280;3132;42.622;23.328;2022-08-19T10:41:44;92675.91;;;30.98;28.12
6198;BME280;3132;42.622;23.328;2022-08-19T10:44:12;92684.94;;;31.15;28.91
6198;BME280;3132;42.622;23.328;2022-08-19T10:46:41;92683.84;;;30.79;28.64
6198;BME280;3132;42.622;23.328;2022-08-19T10:49:08;92685.50;;;30.29;27.61
6198;BME280;3132;42.622;23.328;2022-08-19T10:51:33;92671.75;;;30.57;29.04
6198;BME280;3132;42.622;23.328;2022-08-19T10:54:18;92671.78;;;30.53;29.36
6198;BME280;3132;42.622;23.328;2022-08-19T10:56:44;92668.81;;;30.41;29.29
6198;BME280;3132;42.622;23.328;2022-08-19T11:01:47;92673.34;;;30.88;29.61
6198;BME280;3132;42.622;23.328;2022-08-19T11:04:13;92670.00;;;30.77;28.89
6198;BME280;3132;42.622;23.328;2022-08-19T11:06:40;92677.84;;;31.28;28.28
6198;BME280;3132;42.622;23.328;2022-08-19T11:09:07;92670.75;;;31.11;27.75
6198;BME280;3132;42.622;23.328;2022-08-19T11:11:34;92659.53;;;31.16;28.38
6198;BME280;3132;42.622;23.328;2022-08-19T11:14:11;92671.00;;;30.90;29.60
6198;BME280;3132;42.622;23.328;2022-08-19T11:16:37;92660.69;;;30.85;29.29
6198;BME280;3132;42.622;23.328;2022-08-19T11:19:07;92676.34;;;30.93;29.36
6198;BME280;3132;42.622;23.328;2022-08-19T11:21:44;92672.56;;;30.87;29.04
6198;BME280;3132;42.622;23.328;2022-08-19T11:24:21;92665.31;;;30.81;28.82
6198;BME280;3132;42.622;23.328;2022-08-19T11:26:49;92670.00;;;31.07;28.48
6198;BME280;3132;42.622;23.328;2022-08-19T11:29:16;92661.22;;;31.03;28.96
6198;BME280;3132;42.622;23.328;2022-08-19T11:31:45;92647.63;;;31.10;29.29
6198;BME280;3132;42.622;23.328;2022-08-19T11:34:14;92656.63;;;31.00;29.72
6198;BME280;3132;42.622;23.328;2022-08-19T11:36:43;92637.38;;;30.98;29.75
6198;BME280;3132;42.622;23.328;2022-08-19T11:39:12;92655.66;;;31.17;29.34
6198;BME280;3132;42.622;23.328;2022-08-19T11:41:38;92643.50;;;31.02;29.77
6198;BME280;3132;42.622;23.328;2022-08-19T11:44:04;92629.78;;;31.19;29.20
6198;BME280;3132;42.622;23.328;2022-08-19T11:46:31;92637.38;;;31.28;29.01
6198;BME280;3132;42.622;23.328;2022-08-19T11:48:58;92643.09;;;31.34;30.09
6198;BME280;3132;42.622;23.328;2022-08-19T11:51:25;92621.69;;;31.19;30.19
6198;BME280;3132;42.622;23.328;2022-08-19T11:53:51;92640.72;;;31.09;30.27
6198;BME280;3132;42.622;23.328;2022-08-19T11:56:18;92647.00;;;31.29;29.51
6198;BME280;3132;42.622;23.328;2022-08-19T11:58:44;92642.16;;;31.47;28.99
6198;BME280;3132;42.622;23.328;2022-08-19T12:01:10;92642.97;;;31.44;29.06
6198;BME280;3132;42.622;23.328;2022-08-19T12:03:37;92631.19;;;31.31;29.83
6198;BME280;3132;42.622;23.328;2022-08-19T12:06:18;92630.13;;;31.21;29.26
6198;BME280;3132;42.622;23.328;2022-08-19T12:08:44;92618.06;;;31.03;29.30
6198;BME280;3132;42.622;23.328;2022-08-19T12:11:11;92631.81;;;31.12;29.28
6198;BME280;3132;42.622;23.328;2022-08-19T12:13:38;92633.44;;;31.06;29.69
6198;BME280;3132;42.622;23.328;2022-08-19T12:16:27;92627.41;;;30.95;29.26
6198;BME280;3132;42.622;23.328;2022-08-19T12:18:54;92623.16;;;31.24;30.42
6198;BME280;3132;42.622;23.328;2022-08-19T12:21:25;92622.78;;;31.52;29.92
6198;BME280;3132;42.622;23.328;2022-08-19T12:23:55;92613.63;;;31.46;29.49
6198;BME280;3132;42.622;23.328;2022-08-19T12:26:20;92617.88;;;31.47;30.17
6198;BME280;3132;42.622;23.328;2022-08-19T12:28:46;92605.53;;;31.69;29.71
6198;BME280;3132;42.622;23.328;2022-08-19T12:31:14;92602.19;;;31.88;28.54
6198;BME280;3132;42.622;23.328;2022-08-19T12:33:40;92594.38;;;31.94;28.75
6198;BME280;3132;42.622;23.328;2022-08-19T12:36:09;92603.22;;;31.45;28.99
6198;BME280;3132;42.622;23.328;2022-08-19T12:38:36;92591.13;;;31.56;29.28
6198;BME280;3132;42.622;23.328;2022-08-19T12:41:03;92599.22;;;31.56;29.58
6198;BME280;3132;42.622;23.328;2022-08-19T12:43:35;92584.88;;;31.59;30.25
6198;BME280;3132;42.622;23.328;2022-08-19T12:46:01;92593.06;;;31.25;28.60
6198;BME280;3132;42.622;23.328;2022-08-19T12:48:27;92586.84;;;31.32;28.64
6198;BME280;3132;42.622;23.328;2022-08-19T12:50:53;92585.72;;;31.56;29.36
6198;BME280;3132;42.622;23.328;2022-08-19T12:53:19;92591.00;;;31.63;29.25
6198;BME280;3132;42.622;23.328;2022-08-19T12:55:44;92580.22;;;31.86;28.24
6198;BME280;3132;42.622;23.328;2022-08-19T12:58:10;92587.03;;;31.94;28.89
6198;BME280;3132;42.622;23.328;2022-08-19T13:00:35;92568.81;;;31.75;28.94
6198;BME280;3132;42.622;23.328;2022-08-19T13:03:01;92588.84;;;32.01;29.25
6198;BME280;3132;42.622;23.328;2022-08-19T13:05:30;92582.00;;;32.16;28.85
6198;BME280;3132;42.622;23.328;2022-08-19T13:07:57;92581.28;;;32.15;28.50
6198;BME280;3132;42.622;23.328;2022-08-19T13:10:27;92584.72;;;32.16;29.87
6198;BME280;3132;42.622;23.328;2022-08-19T13:12:53;92584.19;;;32.24;28.28
6198;BME280;3132;42.622;23.328;2022-08-19T13:15:20;92581.25;;;31.69;28.68
6198;BME280;3132;42.622;23.328;2022-08-19T13:17:48;92580.81;;;31.97;28.28
6198;BME280;3132;42.622;23.328;2022-08-19T13:20:15;92575.19;;;31.88;28.62
6198;BME280;3132;42.622;23.328;2022-08-19T13:22:41;92573.28;;;31.62;29.20
6198;BME280;3132;42.622;23.328;2022-08-19T13:25:08;92568.47;;;31.73;28.73
6198;BME280;3132;42.622;23.328;2022-08-19T13:27:33;92570.59;;;31.85;27.75